METAR Data
IDs: Format: Raw Decoded Include TAF

Data at: 0514 UTC 24 Sep 2018

KBCT 240247Z 09006KT 10SM SCT022 28/23 A2999
KBCT 240147Z 09008KT 10SM SCT022 28/24 A2999
KBCT 240047Z 09006KT 10SM SCT022 28/24 A2996
KBCT 232347Z 07006KT 10SM FEW022 28/23 A2995
KBCT 232247Z 08007KT 10SM CLR 29/24 A2994
KBCT 232153Z 07007KT 10SM BKN110 30/24 A2994 RMK LTG DSNT W
KBCT 232047Z 09011KT 10SM SCT025 30/24 A2994
KBCT 231947Z 07011KT 10SM FEW024 31/24 A2994 RMK LTG DSNT SW AND NW
KBCT 231847Z 09009KT 10SM FEW024 31/23 A2996
KBCT 231750Z 14006KT 10SM SCT024 32/24 A2998
KBCT 231647Z 09007KT 10SM SCT024 32/23 A3000
KBCT 231547Z 09006KT 10SM SCT025 32/23 A3001
KBCT 231447Z 09006KT 10SM SCT024 31/22 A3002
KBCT 231347Z 06007KT 10SM SCT025 30/23 A3000
KBCT 231147Z 00000KT 10SM CLR 24/23 A2996
KBCT 231047Z 00000KT 10SM CLR 24/23 A2995
KBCT 230247Z 09005KT 10SM SCT022 BKN028 28/24 A2999 RMK LAST
KBCT 230147Z 07005KT 10SM SCT024 28/23 A2999
KBCT 230047Z 08005KT 10SM CLR 28/22 A2997
KBCT 222347Z 08007KT 10SM FEW027 28/22 A2996
KBCT 222247Z 08008KT 10SM CLR 29/22 A2996
KBCT 222153Z 06007KT 10SM CLR 30/22 A2995
KBCT 222053Z 06007KT 10SM CLR 31/22 A2995 RMK LTG DSNT SW-NW
KBCT 221947Z 10008G14KT 10SM VCTS CLR 31/22 A2996 RMK LTG DSNT SW
KBCT 221847Z 10008KT 10SM FEW027 31/21 A2997
KBCT 221747Z 12008G14KT 10SM CLR 32/23 A2999